createdAt,value
2023-03-20T00:00:22.866Z,9.57
2023-03-20T00:02:24.675Z,9.56
2023-03-20T00:04:26.283Z,9.51
2023-03-20T00:06:27.620Z,9.42
2023-03-20T00:08:29.753Z,9.34
2023-03-20T00:10:30.149Z,9.3
2023-03-20T00:12:31.972Z,9.35
2023-03-20T00:14:33.602Z,9.31
2023-03-20T00:16:34.897Z,9.26
2023-03-20T00:18:36.546Z,9.25
2023-03-20T00:20:37.981Z,9.22
2023-03-20T00:22:39.707Z,9.14
2023-03-20T00:24:40.976Z,9.09
2023-03-20T00:26:42.649Z,9.05
2023-03-20T00:28:44.034Z,9.01
2023-03-20T00:30:45.643Z,8.85
2023-03-20T00:32:47.058Z,8.83
2023-03-20T00:34:48.252Z,8.85
2023-03-20T00:36:49.271Z,8.85
2023-03-20T00:38:50.896Z,8.82
2023-03-20T00:40:52.558Z,8.79
2023-03-20T00:42:53.697Z,8.69
2023-03-20T00:44:54.700Z,8.57
2023-03-20T00:46:56.014Z,8.57
2023-03-20T00:48:57.299Z,8.51
2023-03-20T00:53:00.614Z,8.32
2023-03-20T00:55:01.995Z,8.45
2023-03-20T00:57:03.927Z,8.43
2023-03-20T00:59:05.162Z,8.4
2023-03-20T01:01:06.842Z,8.39
2023-03-20T01:03:08.648Z,8.5
2023-03-20T01:05:10.576Z,8.39
2023-03-20T01:07:12.218Z,8.39
2023-03-20T01:09:13.818Z,8.29
2023-03-20T01:11:14.841Z,8.29
2023-03-20T01:13:15.824Z,8.21
2023-03-20T01:15:16.808Z,8.22
2023-03-20T01:17:18.339Z,8.15
2023-03-20T01:19:19.662Z,8.11
2023-03-20T01:21:21.376Z,8.03
2023-03-20T01:23:23.484Z,8.01
2023-03-20T01:25:24.569Z,8
2023-03-20T01:27:26.206Z,7.95
2023-03-20T01:29:27.884Z,8.07
2023-03-20T01:31:29.546Z,8.15
2023-03-20T01:33:30.661Z,8.11
2023-03-20T01:35:32.038Z,8.08
2023-03-20T01:37:33.652Z,8.15
2023-03-20T01:39:35.160Z,8.14
2023-03-20T01:41:36.248Z,8.22
2023-03-20T01:43:37.324Z,8.21
2023-03-20T01:45:39.239Z,8.25
2023-03-20T01:47:39.968Z,8.29
2023-03-20T01:49:40.993Z,8.28
2023-03-20T01:51:42.578Z,8.29
2023-03-20T01:53:44.084Z,8.3
2023-03-20T01:55:45.436Z,8.3
2023-03-20T01:57:47.231Z,8.31
2023-03-20T01:59:48.957Z,8.28
2023-03-20T02:01:49.958Z,8.29
2023-03-20T02:03:51.897Z,8.3
2023-03-20T02:05:52.904Z,8.31
2023-03-20T02:07:54.229Z,8.33
2023-03-20T02:09:56.029Z,8.32
2023-03-20T02:11:56.997Z,8.34
2023-03-20T02:13:58.080Z,8.37
2023-03-20T02:15:59.201Z,8.38
2023-03-20T02:18:00.423Z,8.34
2023-03-20T02:20:01.428Z,8.36
2023-03-20T02:22:03.335Z,8.37
2023-03-20T02:24:04.340Z,8.36
2023-03-20T02:26:05.298Z,8.33
2023-03-20T02:28:06.699Z,8.33
2023-03-20T02:30:08.172Z,8.31
2023-03-20T02:32:09.250Z,8.3
2023-03-20T02:34:10.583Z,8.31
2023-03-20T02:36:11.860Z,8.31
2023-03-20T02:38:12.819Z,8.31
2023-03-20T02:40:14.248Z,8.29
2023-03-20T02:42:15.446Z,8.28
2023-03-20T02:44:17.003Z,8.29
2023-03-20T02:46:18.045Z,8.28
2023-03-20T02:48:19.211Z,8.28
2023-03-20T02:50:20.867Z,8.26
2023-03-20T02:52:22.798Z,8.23
2023-03-20T02:54:23.768Z,8.25
2023-03-20T02:56:25.140Z,8.26
2023-03-20T02:58:26.771Z,8.28
2023-03-20T03:00:27.718Z,8.3
2023-03-20T03:02:37.458Z,8.29
2023-03-20T03:04:31.177Z,8.32
2023-03-20T03:06:32.949Z,8.33
2023-03-20T03:08:34.555Z,8.32
2023-03-20T03:10:35.740Z,8.32
2023-03-20T03:12:37.152Z,8.31
2023-03-20T03:14:38.457Z,8.32
2023-03-20T03:16:40.249Z,8.35
2023-03-20T03:18:50.415Z,8.35
2023-03-20T03:20:42.467Z,8.34
2023-03-20T03:22:43.551Z,8.34
2023-03-20T03:24:44.956Z,8.37
2023-03-20T03:26:46.908Z,8.37
2023-03-20T03:28:48.472Z,8.4
2023-03-20T03:30:50.253Z,8.41
2023-03-20T03:32:52.079Z,8.44
2023-03-20T03:34:53.435Z,8.43
2023-03-20T03:36:54.985Z,8.41
2023-03-20T03:38:56.939Z,8.41
2023-03-20T03:40:58.085Z,8.44
2023-03-20T03:42:59.821Z,8.41
2023-03-20T03:45:01.081Z,8.48
2023-03-20T03:47:46.463Z,8.47
2023-03-20T03:49:48.033Z,8.46
2023-03-20T03:51:49.519Z,8.47
2023-03-20T03:53:50.642Z,8.47
2023-03-20T03:55:51.803Z,8.44
2023-03-20T03:57:53.514Z,8.42
2023-03-20T03:59:55.347Z,8.44
2023-03-20T04:01:57.058Z,8.44
2023-03-20T04:03:58.031Z,8.44
2023-03-20T04:05:59.878Z,8.47
2023-03-20T04:08:01.161Z,8.44
2023-03-20T04:10:02.847Z,8.51
2023-03-20T04:12:04.102Z,8.52
2023-03-20T04:14:05.773Z,8.52
2023-03-20T04:16:07.497Z,8.51
2023-03-20T04:18:09.261Z,8.48
2023-03-20T04:20:10.965Z,8.52
2023-03-20T04:22:12.347Z,8.51
2023-03-20T04:24:14.049Z,8.53
2023-03-20T04:26:15.162Z,8.54
2023-03-20T04:28:16.748Z,8.51
2023-03-20T04:30:18.434Z,8.52
2023-03-20T04:32:19.626Z,8.52
2023-03-20T04:34:21.156Z,8.51
2023-03-20T04:36:23.133Z,8.52
2023-03-20T04:38:24.652Z,8.52
2023-03-20T04:40:26.247Z,8.51
2023-03-20T04:42:27.987Z,8.53
2023-03-20T04:44:29.082Z,8.53
2023-03-20T04:46:30.433Z,8.54
2023-03-20T04:48:31.611Z,8.5
2023-03-20T04:50:33.089Z,8.5
2023-03-20T04:52:34.246Z,8.52
2023-03-20T04:54:35.286Z,8.53
2023-03-20T04:56:36.560Z,8.52
2023-03-20T04:58:38.312Z,8.51
2023-03-20T05:00:40.219Z,8.52
2023-03-20T05:02:42.042Z,8.53
2023-03-20T05:04:43.649Z,8.53
2023-03-20T05:06:44.816Z,8.54
2023-03-20T05:08:45.802Z,8.56
2023-03-20T05:10:47.196Z,8.52
2023-03-20T05:12:48.880Z,8.54
2023-03-20T05:14:50.015Z,8.54
2023-03-20T05:16:51.559Z,8.51
2023-03-20T05:18:53.239Z,8.56
2023-03-20T05:20:54.497Z,8.54
2023-03-20T05:22:56.358Z,8.55
2023-03-20T05:24:57.949Z,8.54
2023-03-20T05:26:59.621Z,8.59
2023-03-20T05:29:01.213Z,8.57
2023-03-20T05:31:02.669Z,8.55
2023-03-20T05:33:03.889Z,8.55
2023-03-20T05:35:05.281Z,8.56
2023-03-20T05:37:06.825Z,8.56
2023-03-20T05:39:08.404Z,8.55
2023-03-20T05:41:09.748Z,8.53
2023-03-20T05:43:10.721Z,8.57
2023-03-20T05:45:11.875Z,8.56
2023-03-20T05:47:13.100Z,8.55
2023-03-20T05:49:14.872Z,8.56
2023-03-20T05:51:16.616Z,8.61
2023-03-20T05:53:18.223Z,8.57
2023-03-20T05:55:19.307Z,8.55
2023-03-20T05:57:21.020Z,8.56
2023-03-20T05:59:22.443Z,8.56
2023-03-20T06:01:23.985Z,8.6
2023-03-20T06:03:25.225Z,8.59
2023-03-20T06:05:26.471Z,8.62
2023-03-20T06:07:27.500Z,8.63
2023-03-20T06:09:28.919Z,8.63
2023-03-20T06:11:30.438Z,8.64
2023-03-20T06:13:31.992Z,8.65
2023-03-20T06:17:34.385Z,8.68
2023-03-20T06:19:35.614Z,8.68
2023-03-20T06:21:37.100Z,8.69
2023-03-20T06:23:38.608Z,8.7
2023-03-20T06:25:39.768Z,8.74
2023-03-20T06:27:41.210Z,8.76
2023-03-20T06:29:42.626Z,8.79
2023-03-20T06:31:43.864Z,8.79
2023-03-20T06:33:44.889Z,8.75
2023-03-20T06:35:46.236Z,8.81
2023-03-20T06:37:47.701Z,8.81
2023-03-20T06:39:48.672Z,8.79
2023-03-20T06:41:49.802Z,8.78
2023-03-20T06:43:51.537Z,8.8
2023-03-20T06:45:52.421Z,8.82
2023-03-20T06:47:54.096Z,8.82
2023-03-20T06:49:55.208Z,8.8
2023-03-20T06:51:56.604Z,8.8
2023-03-20T06:53:58.383Z,8.79
2023-03-20T06:56:00.314Z,8.79
2023-03-20T06:58:01.718Z,8.82
2023-03-20T07:00:02.675Z,8.81
2023-03-20T07:02:03.765Z,8.87
2023-03-20T07:04:04.797Z,8.86
2023-03-20T07:06:05.861Z,8.86
2023-03-20T07:08:07.431Z,8.87
2023-03-20T07:10:09.251Z,8.96
2023-03-20T07:12:10.224Z,8.96
2023-03-20T07:14:11.513Z,8.96
2023-03-20T07:16:13.303Z,8.95
2023-03-20T07:18:14.862Z,8.91
2023-03-20T07:20:16.210Z,8.92
2023-03-20T07:22:17.742Z,8.95
2023-03-20T07:24:19.234Z,9
2023-03-20T07:26:21.024Z,9.02
2023-03-20T07:28:22.490Z,9.04
2023-03-20T07:30:23.851Z,9.06
2023-03-20T07:32:24.996Z,9.08
2023-03-20T07:34:26.128Z,9.02
2023-03-20T07:36:27.650Z,9.07
2023-03-20T07:38:29.053Z,9.03
2023-03-20T07:40:30.955Z,9.11
2023-03-20T07:42:32.188Z,9.06
2023-03-20T07:44:33.437Z,9.1
2023-03-20T07:46:35.095Z,9.07
2023-03-20T07:48:36.829Z,9.12
2023-03-20T07:50:37.927Z,9.14
2023-03-20T07:52:39.008Z,9.15
2023-03-20T07:54:40.225Z,9.17
2023-03-20T07:58:43.301Z,9.09
2023-03-20T08:00:44.756Z,9.11
2023-03-20T08:02:46.265Z,9.11
2023-03-20T08:04:47.123Z,9.1
2023-03-20T08:06:48.451Z,9.09
2023-03-20T08:08:49.550Z,9.11
2023-03-20T08:10:50.969Z,9.1
2023-03-20T08:12:52.443Z,9.06
2023-03-20T08:14:54.189Z,9.11
2023-03-20T08:17:10.612Z,9.15
2023-03-20T08:18:56.413Z,9.16
2023-03-20T08:20:57.783Z,9.23
2023-03-20T08:22:59.073Z,9.29
2023-03-20T08:25:00.691Z,9.26
2023-03-20T08:27:01.762Z,9.31
2023-03-20T08:29:04.137Z,9.35
2023-03-20T08:31:05.886Z,9.3
2023-03-20T08:33:07.344Z,9.27
2023-03-20T08:35:16.440Z,9.25
2023-03-20T08:37:10.390Z,9.22
2023-03-20T08:39:12.084Z,9.28
2023-03-20T08:41:13.070Z,9.27
2023-03-20T08:43:14.746Z,9.25
2023-03-20T08:45:15.819Z,9.27
2023-03-20T08:47:17.673Z,9.29
2023-03-20T08:49:19.425Z,9.27
2023-03-20T08:51:20.704Z,9.29
2023-03-20T08:53:22.364Z,9.26
2023-03-20T08:55:23.388Z,9.26
2023-03-20T08:57:25.163Z,9.23
2023-03-20T08:59:26.409Z,9.28
2023-03-20T09:01:38.479Z,9.3
2023-03-20T09:03:28.675Z,9.3
2023-03-20T09:05:31.468Z,9.4
2023-03-20T09:07:31.638Z,9.5
2023-03-20T09:09:32.794Z,9.61
2023-03-20T09:11:34.107Z,9.68
2023-03-20T09:13:36.020Z,9.77
2023-03-20T09:15:37.173Z,9.82
2023-03-20T09:17:38.696Z,9.87
2023-03-20T09:19:39.723Z,10.07
2023-03-20T09:21:40.993Z,10.24
2023-03-20T09:23:42.947Z,10.19
2023-03-20T09:25:44.756Z,10.39
2023-03-20T09:27:46.310Z,10.35
2023-03-20T09:29:47.628Z,10.31
2023-03-20T09:31:48.782Z,10.39
2023-03-20T09:33:50.590Z,10.24
2023-03-20T09:35:52.166Z,10.17
2023-03-20T09:37:53.395Z,10.15
2023-03-20T09:39:55.239Z,10.28
2023-03-20T09:41:57.753Z,10.2
2023-03-20T09:43:58.091Z,10.21
2023-03-20T09:45:59.984Z,10.16
2023-03-20T09:48:01.253Z,10.1
2023-03-20T09:50:02.546Z,10.25
2023-03-20T09:52:04.146Z,10.27
2023-03-20T09:54:05.851Z,10.27
2023-03-20T09:56:07.229Z,10.27
2023-03-20T09:58:08.708Z,10.23
2023-03-20T10:00:09.720Z,10.14
2023-03-20T10:02:11.541Z,10.24
2023-03-20T10:04:12.832Z,10.25
2023-03-20T10:06:14.701Z,10.33
2023-03-20T10:08:16.450Z,10.34
2023-03-20T10:10:17.978Z,10.19
2023-03-20T10:12:19.172Z,10.34
2023-03-20T10:14:20.046Z,10.51
2023-03-20T10:16:21.222Z,10.6
2023-03-20T10:18:22.300Z,10.46
2023-03-20T10:22:25.418Z,10.31
2023-03-20T10:24:26.568Z,10.31
2023-03-20T10:26:28.187Z,10.21
2023-03-20T10:28:29.363Z,10.23
2023-03-20T10:30:30.632Z,10.26
2023-03-20T10:33:15.962Z,10.26
2023-03-20T10:35:17.545Z,10.34
2023-03-20T10:37:18.460Z,10.37
2023-03-20T10:39:19.997Z,10.2
2023-03-20T10:41:21.402Z,10.03
2023-03-20T10:43:22.758Z,10.09
2023-03-20T10:45:23.849Z,9.99
2023-03-20T10:47:25.196Z,9.93
2023-03-20T10:49:26.882Z,9.87
2023-03-20T10:51:28.506Z,9.96
2023-03-20T10:53:30.286Z,9.89
2023-03-20T10:55:31.599Z,9.91
2023-03-20T10:57:32.740Z,9.8
2023-03-20T10:59:34.300Z,9.8
2023-03-20T11:01:35.963Z,9.76
2023-03-20T11:03:37.001Z,9.8
2023-03-20T11:05:37.973Z,9.79
2023-03-20T11:07:39.366Z,9.8
2023-03-20T11:09:40.547Z,9.82
2023-03-20T11:11:42.079Z,9.86
2023-03-20T11:13:43.863Z,9.97
2023-03-20T11:15:45.269Z,9.87
2023-03-20T11:17:46.366Z,9.92
2023-03-20T11:19:48.024Z,9.92
2023-03-20T11:21:49.574Z,9.87
2023-03-20T11:23:51.206Z,9.87
2023-03-20T11:25:52.956Z,9.84
2023-03-20T11:27:54.444Z,9.82
2023-03-20T11:29:56.021Z,9.75
2023-03-20T11:31:57.098Z,9.67
2023-03-20T11:33:58.426Z,9.53
2023-03-20T11:36:00.166Z,9.53
2023-03-20T11:38:01.230Z,9.48
2023-03-20T11:40:02.868Z,9.45
2023-03-20T11:42:04.796Z,9.45
2023-03-20T11:44:06.685Z,9.38
2023-03-20T11:46:07.845Z,9.42
2023-03-20T11:48:08.938Z,9.39
2023-03-20T11:50:10.820Z,9.4
2023-03-20T11:52:12.111Z,9.37
2023-03-20T11:54:13.394Z,9.37
2023-03-20T11:56:14.699Z,9.38
2023-03-20T11:58:16.621Z,9.39
2023-03-20T12:00:18.246Z,9.29
2023-03-20T12:02:20.125Z,9.42
2023-03-20T12:04:21.065Z,9.37
2023-03-20T12:06:22.186Z,9.33
2023-03-20T12:08:23.826Z,9.3
2023-03-20T12:10:25.597Z,9.27
2023-03-20T12:12:26.681Z,9.37
2023-03-20T12:14:28.062Z,9.36
2023-03-20T12:16:29.240Z,9.4
2023-03-20T12:18:30.489Z,9.35
2023-03-20T12:20:31.527Z,9.28
2023-03-20T12:22:32.553Z,9.37
2023-03-20T12:24:34.097Z,9.34
2023-03-20T12:26:35.031Z,9.41
2023-03-20T12:28:36.138Z,9.39
2023-03-20T12:30:37.936Z,9.49
2023-03-20T12:32:38.909Z,9.48
2023-03-20T12:34:40.261Z,9.42
2023-03-20T12:36:41.793Z,9.5
2023-03-20T12:40:44.579Z,9.44
2023-03-20T12:42:45.878Z,9.48
2023-03-20T12:44:47.522Z,9.49
2023-03-20T12:46:48.831Z,9.47
2023-03-20T12:48:50.214Z,9.49
2023-03-20T12:50:51.916Z,9.48
2023-03-20T12:52:53.531Z,9.49
2023-03-20T12:54:54.745Z,9.48
2023-03-20T12:56:56.281Z,9.56
2023-03-20T12:58:57.897Z,9.63
2023-03-20T13:00:59.092Z,9.73
2023-03-20T13:03:00.425Z,9.66
2023-03-20T13:05:01.810Z,9.81
2023-03-20T13:07:11.585Z,9.91
2023-03-20T13:09:04.588Z,9.95
2023-03-20T13:11:05.903Z,10.2
2023-03-20T13:13:07.403Z,10.48
2023-03-20T13:15:08.811Z,10.52
2023-03-20T13:17:10.504Z,10.51
2023-03-20T13:19:11.945Z,10.67
2023-03-20T13:21:13.153Z,10.82
2023-03-20T13:23:14.437Z,10.74
2023-03-20T13:25:15.900Z,10.79
2023-03-20T13:27:16.884Z,10.86
2023-03-20T13:29:17.796Z,11.04
2023-03-20T13:31:18.707Z,10.76
2023-03-20T13:33:20.005Z,10.97
2023-03-20T13:35:21.279Z,10.95
2023-03-20T13:37:24.319Z,11.05
2023-03-20T13:39:24.481Z,11.34
2023-03-20T13:41:26.309Z,11.38
2023-03-20T13:43:28.496Z,11.93
2023-03-20T13:45:31.757Z,12.03
2023-03-20T13:47:31.751Z,11.93
2023-03-20T13:49:33.029Z,11.96
2023-03-20T13:51:33.929Z,12.31
2023-03-20T13:53:35.259Z,12.42
2023-03-20T13:55:36.792Z,12.43
2023-03-20T13:57:37.965Z,12.15
2023-03-20T13:59:39.509Z,12.27
2023-03-20T14:01:41.121Z,12.34
2023-03-20T14:03:42.904Z,12.03
2023-03-20T14:05:44.566Z,12.07
2023-03-20T14:07:46.350Z,12.01
2023-03-20T14:09:47.584Z,12.09
2023-03-20T14:11:48.620Z,12.32
2023-03-20T14:13:49.742Z,12.09
2023-03-20T14:15:50.975Z,12.1
2023-03-20T14:17:52.039Z,12.3
2023-03-20T14:19:53.393Z,12.07
2023-03-20T14:21:54.324Z,12.15
2023-03-20T14:23:55.762Z,11.85
2023-03-20T14:25:56.929Z,11.97
2023-03-20T14:27:58.082Z,11.99
2023-03-20T14:29:59.263Z,12.01
2023-03-20T14:32:00.264Z,11.89
2023-03-20T14:34:02.084Z,12.02
2023-03-20T14:36:03.548Z,11.97
2023-03-20T14:38:04.942Z,11.97
2023-03-20T14:40:06.062Z,11.99
2023-03-20T14:42:07.277Z,12.16
2023-03-20T14:44:08.745Z,12.25
2023-03-20T14:46:10.461Z,12.33
2023-03-20T14:48:11.581Z,12.25
2023-03-20T14:50:12.991Z,12.06
2023-03-20T14:52:14.361Z,12.24
2023-03-20T14:54:15.996Z,12.24
2023-03-20T14:56:17.197Z,12.3
2023-03-20T14:58:18.648Z,12.12
2023-03-20T15:00:20.487Z,12.1
2023-03-20T15:04:22.833Z,12.16
2023-03-20T15:06:24.673Z,12.07
2023-03-20T15:08:25.989Z,12.1
2023-03-20T15:10:27.815Z,12.13
2023-03-20T15:12:28.808Z,12.31
2023-03-20T15:14:29.944Z,12.13
2023-03-20T15:16:31.477Z,12.23
2023-03-20T15:18:41.396Z,12.21
2023-03-20T15:20:33.557Z,12.18
2023-03-20T15:22:35.148Z,12.05
2023-03-20T15:24:36.357Z,12.02
2023-03-20T15:26:38.041Z,12
2023-03-20T15:28:39.674Z,11.99
2023-03-20T15:30:41.086Z,11.88
2023-03-20T15:32:42.990Z,11.85
2023-03-20T15:34:43.919Z,11.85
2023-03-20T15:36:45.416Z,11.92
2023-03-20T15:38:47.071Z,11.85
2023-03-20T15:40:51.286Z,11.82
2023-03-20T15:42:49.596Z,11.82
2023-03-20T15:44:50.640Z,11.85
2023-03-20T15:46:51.659Z,11.84
2023-03-20T15:48:53.371Z,11.81
2023-03-20T15:50:55.233Z,11.87
2023-03-20T15:52:56.263Z,11.83
2023-03-20T15:54:58.110Z,11.79
2023-03-20T15:56:59.323Z,11.77
2023-03-20T15:59:00.210Z,11.77
2023-03-20T16:01:01.141Z,11.77
2023-03-20T16:03:02.750Z,11.77
2023-03-20T16:05:03.807Z,11.76
2023-03-20T16:07:04.910Z,11.71
2023-03-20T16:09:06.731Z,11.73
2023-03-20T16:11:07.997Z,11.73
2023-03-20T16:13:09.300Z,11.69
2023-03-20T16:15:10.224Z,11.75
2023-03-20T16:17:11.888Z,11.69
2023-03-20T16:19:13.718Z,11.65
2023-03-20T16:21:14.865Z,11.66
2023-03-20T16:23:15.830Z,11.7
2023-03-20T16:25:17.226Z,11.71
2023-03-20T16:27:18.842Z,11.7
2023-03-20T16:29:20.418Z,11.69
2023-03-20T16:31:21.691Z,11.67
2023-03-20T16:33:23.015Z,11.67
2023-03-20T16:35:24.477Z,11.68
2023-03-20T16:37:25.889Z,11.67
2023-03-20T16:39:26.520Z,11.68
2023-03-20T16:41:28.208Z,11.69
2023-03-20T16:45:31.292Z,11.7
2023-03-20T16:47:32.912Z,11.66
2023-03-20T16:49:34.293Z,11.61
2023-03-20T16:51:35.229Z,11.61
2023-03-20T16:53:36.483Z,11.58
2023-03-20T16:55:38.035Z,11.58
2023-03-20T16:57:39.692Z,11.53
2023-03-20T16:59:41.293Z,11.54
2023-03-20T17:01:42.573Z,11.48
2023-03-20T17:03:43.535Z,11.53
2023-03-20T17:05:44.759Z,11.5
2023-03-20T17:07:46.661Z,11.48
2023-03-20T17:09:47.805Z,11.53
2023-03-20T17:11:48.834Z,11.5
2023-03-20T17:13:50.055Z,11.49
2023-03-20T17:15:51.468Z,11.42
2023-03-20T17:18:37.030Z,11.35
2023-03-20T17:20:38.293Z,11.34
2023-03-20T17:22:39.862Z,11.33
2023-03-20T17:24:41.762Z,11.31
2023-03-20T17:26:43.612Z,11.27
2023-03-20T17:28:45.169Z,11.2
2023-03-20T17:30:46.587Z,11.14
2023-03-20T17:32:47.631Z,11.17
2023-03-20T17:34:49.202Z,11.14
2023-03-20T17:36:50.894Z,11.1
2023-03-20T17:38:52.298Z,11.16
2023-03-20T17:40:53.743Z,11.04
2023-03-20T17:42:55.224Z,11.02
2023-03-20T17:44:56.272Z,10.97
2023-03-20T17:46:59.134Z,10.91
2023-03-20T17:48:59.308Z,10.87
2023-03-20T17:51:01.092Z,10.93
2023-03-20T17:55:03.590Z,10.92
2023-03-20T17:57:04.774Z,10.98
2023-03-20T17:59:06.118Z,10.93
2023-03-20T18:01:07.266Z,10.86
2023-03-20T18:03:08.390Z,10.86
2023-03-20T18:05:09.534Z,10.86
2023-03-20T18:07:10.982Z,10.88
2023-03-20T18:09:12.240Z,10.88
2023-03-20T18:11:13.985Z,10.92
2023-03-20T18:13:14.967Z,10.95
2023-03-20T18:15:16.313Z,10.9
2023-03-20T18:17:17.978Z,10.95
2023-03-20T18:19:19.764Z,11
2023-03-20T18:21:20.833Z,10.99
2023-03-20T18:23:22.284Z,11
2023-03-20T18:25:23.277Z,10.94
2023-03-20T18:27:24.819Z,10.9
2023-03-20T18:29:26.715Z,10.88
2023-03-20T18:31:27.918Z,10.84
2023-03-20T18:33:29.530Z,10.84
2023-03-20T18:35:30.532Z,10.84
2023-03-20T18:37:32.513Z,10.83
2023-03-20T18:39:34.165Z,10.75
2023-03-20T18:41:35.781Z,10.74
2023-03-20T18:43:36.746Z,10.82
2023-03-20T18:45:37.732Z,10.79
2023-03-20T18:47:39.469Z,10.75
2023-03-20T18:49:41.071Z,10.75
2023-03-20T18:51:42.211Z,10.71
2023-03-20T18:53:43.801Z,10.67
2023-03-20T18:55:45.172Z,10.76
2023-03-20T18:57:46.133Z,10.77
2023-03-20T18:59:47.389Z,10.8
2023-03-20T19:01:49.288Z,10.79
2023-03-20T19:03:50.942Z,10.72
2023-03-20T19:05:52.574Z,10.75
2023-03-20T19:07:53.536Z,10.79
2023-03-20T19:09:54.980Z,10.76
2023-03-20T19:11:55.890Z,10.76
2023-03-20T19:13:56.795Z,10.74
2023-03-20T19:15:58.474Z,10.76
2023-03-20T19:18:00.163Z,10.7
2023-03-20T19:20:01.311Z,10.71
2023-03-20T19:22:02.915Z,10.73
2023-03-20T19:24:04.362Z,10.64
2023-03-20T19:26:05.353Z,10.7
2023-03-20T19:28:07.706Z,10.68
2023-03-20T19:30:08.469Z,10.64
2023-03-20T19:32:09.689Z,10.66
2023-03-20T19:36:12.844Z,10.68
2023-03-20T19:38:13.911Z,10.57
2023-03-20T19:40:14.853Z,10.54
2023-03-20T19:42:47.367Z,10.59
2023-03-20T19:44:17.874Z,10.6
2023-03-20T19:46:36.094Z,10.56
2023-03-20T19:48:21.111Z,10.51
2023-03-20T19:50:22.954Z,10.51
2023-03-20T19:52:23.981Z,10.52
2023-03-20T19:54:25.047Z,10.52
2023-03-20T19:56:26.926Z,10.51
2023-03-20T19:58:27.952Z,10.48
2023-03-20T20:00:56.192Z,10.4
2023-03-20T20:02:31.339Z,10.38
2023-03-20T20:04:32.826Z,10.35
2023-03-20T20:06:33.959Z,10.34
2023-03-20T20:08:46.787Z,10.32
2023-03-20T20:10:36.982Z,10.31
2023-03-20T20:12:38.734Z,10.36
2023-03-20T20:14:40.144Z,10.33
2023-03-20T20:18:42.461Z,10.31
2023-03-20T20:21:19.521Z,10.39
2023-03-20T20:22:45.460Z,10.29
2023-03-20T20:24:46.902Z,10.33
2023-03-20T20:26:54.150Z,10.34
2023-03-20T20:28:49.049Z,10.27
2023-03-20T20:30:50.746Z,10.29
2023-03-20T20:32:52.521Z,10.28
2023-03-20T20:38:56.705Z,10.2
2023-03-20T20:40:57.775Z,10.18
2023-03-20T20:43:01.550Z,10.13
2023-03-20T20:45:01.360Z,10.1
2023-03-20T20:47:03.133Z,10.12
2023-03-20T20:49:18.295Z,10.08
2023-03-20T20:51:06.021Z,10.03
2023-03-20T20:53:07.660Z,10.08
2023-03-20T20:55:21.964Z,10.01
2023-03-20T20:57:10.179Z,9.96
2023-03-20T20:59:11.957Z,9.94
2023-03-20T21:01:13.923Z,9.94
2023-03-20T21:03:15.754Z,9.89
2023-03-20T21:05:16.834Z,9.85
2023-03-20T21:07:18.674Z,9.87
2023-03-20T21:09:20.103Z,9.96
2023-03-20T21:11:21.255Z,9.91
2023-03-20T21:13:22.249Z,9.84
2023-03-20T21:15:23.325Z,9.88
2023-03-20T21:17:24.291Z,9.8
2023-03-20T21:19:25.940Z,9.77
2023-03-20T21:21:27.424Z,9.73
2023-03-20T21:23:28.769Z,9.72
2023-03-20T21:25:39.945Z,9.72
2023-03-20T21:27:32.027Z,9.72
2023-03-20T21:29:33.590Z,9.72
2023-03-20T21:31:35.201Z,9.7
2023-03-20T21:33:36.930Z,9.65
2023-03-20T21:35:38.930Z,9.66
2023-03-20T21:39:41.768Z,9.57
2023-03-20T21:41:43.130Z,9.54
2023-03-20T21:43:44.212Z,9.56
2023-03-20T21:46:31.266Z,9.53
2023-03-20T21:50:36.972Z,9.49
2023-03-20T21:54:46.273Z,9.39
2023-03-20T21:56:42.200Z,9.35
2023-03-20T21:58:48.753Z,9.34
2023-03-20T22:00:31.540Z,9.28
2023-03-20T22:02:13.945Z,9.26
2023-03-20T22:05:01.208Z,9.26
2023-03-20T22:06:48.131Z,9.17
2023-03-20T22:08:46.796Z,9.12
2023-03-20T22:13:00.243Z,9.02
2023-03-20T22:17:30.108Z,9.04
2023-03-20T22:18:54.647Z,9.03
2023-03-20T22:23:04.761Z,8.95
2023-03-20T22:24:52.301Z,8.92
2023-03-20T22:28:56.633Z,8.8
2023-03-20T22:32:52.740Z,8.74
2023-03-20T22:37:16.332Z,8.71
2023-03-20T22:39:10.668Z,8.64
2023-03-20T22:42:51.063Z,8.5
2023-03-20T22:44:57.102Z,8.41
2023-03-20T22:46:45.568Z,8.37
2023-03-20T22:48:29.467Z,8.3
2023-03-20T22:50:30.617Z,8.25
2023-03-20T22:52:48.971Z,8.26
2023-03-20T22:54:33.089Z,8.21
2023-03-20T22:56:34.299Z,8.24
2023-03-20T22:58:35.265Z,8.25
2023-03-20T23:00:37.203Z,8.26
2023-03-20T23:02:37.789Z,8.32
2023-03-20T23:04:39.297Z,8.36
2023-03-20T23:06:40.235Z,8.38
2023-03-20T23:08:48.896Z,8.41
2023-03-20T23:10:43.366Z,8.39
2023-03-20T23:12:44.754Z,8.35
2023-03-20T23:14:46.547Z,8.33
2023-03-20T23:16:48.243Z,8.37
2023-03-20T23:18:49.909Z,8.34
2023-03-20T23:20:51.832Z,8.32
2023-03-20T23:24:57.290Z,8.19
2023-03-20T23:26:56.592Z,8.12
2023-03-20T23:28:57.984Z,8.08
2023-03-20T23:31:09.660Z,8.12
2023-03-20T23:33:01.141Z,8.09
2023-03-20T23:35:02.777Z,8.07
2023-03-20T23:37:03.778Z,8.09
2023-03-20T23:39:04.882Z,8.08
2023-03-20T23:41:06.147Z,8.07
2023-03-20T23:43:07.098Z,8.06
2023-03-20T23:45:19.428Z,8.07
2023-03-20T23:47:17.937Z,8.04
2023-03-20T23:49:10.856Z,8.04
2023-03-20T23:51:12.233Z,8.03
2023-03-20T23:53:20.532Z,8.12
2023-03-20T23:55:15.338Z,8.1
2023-03-20T23:57:16.661Z,8.12
2023-03-20T23:59:21.640Z,8.18
